createdAt,value
2022-12-09T00:01:07.719Z,89.75
2022-12-09T00:04:10.702Z,89.23
2022-12-09T00:07:13.409Z,90.06
2022-12-09T00:10:16.395Z,89.93
2022-12-09T00:13:20.362Z,90.16
2022-12-09T00:16:23.412Z,90.21
2022-12-09T00:19:26.247Z,89.92
2022-12-09T00:22:29.017Z,90.22
2022-12-09T00:25:31.773Z,90.21
2022-12-09T00:28:35.824Z,90.65
2022-12-09T00:31:38.642Z,90.77
2022-12-09T00:34:42.367Z,90.42
2022-12-09T00:37:44.950Z,90.59
2022-12-09T00:40:47.539Z,90.23
2022-12-09T00:43:51.573Z,90.36
2022-12-09T00:46:54.171Z,90.97
2022-12-09T00:49:56.769Z,90.82
2022-12-09T00:52:59.617Z,90.95
2022-12-09T00:56:02.259Z,90.75
2022-12-09T00:59:06.412Z,91.33
2022-12-09T01:02:09.068Z,91.15
2022-12-09T01:05:11.844Z,91.11
2022-12-09T01:08:15.043Z,91.15
2022-12-09T01:11:18.660Z,91.43
2022-12-09T01:14:22.590Z,91.53
2022-12-09T01:17:25.278Z,91.33
2022-12-09T01:20:28.122Z,90.84
2022-12-09T01:23:30.873Z,91.22
2022-12-09T01:26:33.494Z,90.98
2022-12-09T01:29:37.821Z,91.13
2022-12-09T01:32:40.427Z,90.75
2022-12-09T01:35:43.413Z,90.83
2022-12-09T01:38:46.008Z,90.97
2022-12-09T01:41:49.297Z,90.66
2022-12-09T01:45:36.506Z,90.78
2022-12-09T01:48:40.393Z,90.92
2022-12-09T01:51:43.681Z,91.10
2022-12-09T01:54:46.942Z,91.29
2022-12-09T01:57:49.502Z,91.04
2022-12-09T02:00:53.379Z,91.48
2022-12-09T02:03:56.060Z,91.23
2022-12-09T02:06:59.174Z,91.50
2022-12-09T02:10:01.866Z,91.75
2022-12-09T02:13:07.385Z,92.12
2022-12-09T02:16:13.438Z,91.25
2022-12-09T02:19:22.666Z,91.88
2022-12-09T02:22:27.300Z,92.16
2022-12-09T02:25:32.144Z,91.91
2022-12-09T02:28:55.154Z,92.32
2022-12-09T02:32:22.205Z,91.73
2022-12-09T02:35:27.804Z,91.84
2022-12-09T02:38:32.536Z,91.65
2022-12-09T02:41:35.204Z,92.06
2022-12-09T02:44:37.943Z,92.14
2022-12-09T02:47:42.531Z,91.95
2022-12-09T02:50:46.848Z,91.82
2022-12-09T02:53:51.630Z,91.59
2022-12-09T02:56:55.750Z,92.05
2022-12-09T02:59:58.411Z,91.62
2022-12-09T03:03:02.856Z,91.66
2022-12-09T03:06:08.884Z,91.92
2022-12-09T03:09:13.480Z,91.64
2022-12-09T03:12:16.418Z,91.91
2022-12-09T03:15:19.266Z,91.26
2022-12-09T03:18:22.258Z,91.67
2022-12-09T03:21:26.649Z,91.40
2022-12-09T03:24:30.179Z,91.80
2022-12-09T03:27:34.781Z,91.69
2022-12-09T03:30:39.157Z,91.98
2022-12-09T03:33:41.954Z,91.30
2022-12-09T03:36:48.127Z,90.89
2022-12-09T03:39:51.323Z,91.31
2022-12-09T03:42:57.753Z,91.17
2022-12-09T03:46:01.576Z,91.50
2022-12-09T03:49:04.331Z,91.32
2022-12-09T03:52:10.777Z,91.84
2022-12-09T03:55:16.276Z,91.51
2022-12-09T03:58:18.822Z,91.58
2022-12-09T04:01:22.237Z,91.73
2022-12-09T04:04:25.236Z,91.62
2022-12-09T04:07:29.198Z,91.57
2022-12-09T04:10:31.891Z,91.91
2022-12-09T04:13:34.441Z,91.48
2022-12-09T04:16:37.261Z,91.72
2022-12-09T04:19:40.265Z,91.83
2022-12-09T04:22:44.497Z,91.77
2022-12-09T04:25:47.415Z,91.82
2022-12-09T04:28:50.089Z,92.15
2022-12-09T04:31:53.141Z,92.07
2022-12-09T04:34:56.111Z,92.01
2022-12-09T04:38:00.151Z,91.86
2022-12-09T04:41:02.742Z,91.73
2022-12-09T04:44:05.726Z,91.46
2022-12-09T04:47:08.810Z,91.09
2022-12-09T04:50:13.332Z,91.37
2022-12-09T04:53:17.778Z,91.27
2022-12-09T04:56:22.879Z,91.25
2022-12-09T04:59:25.582Z,91.23
2022-12-09T05:02:28.289Z,91.02
2022-12-09T05:05:31.025Z,91.12
2022-12-09T05:08:35.765Z,91.25
2022-12-09T05:11:38.761Z,91.15
2022-12-09T05:14:41.802Z,91.43
2022-12-09T05:17:44.898Z,91.85
2022-12-09T05:20:47.876Z,91.41
2022-12-09T05:23:52.303Z,91.72
2022-12-09T05:26:54.963Z,91.86
2022-12-09T05:29:57.718Z,91.98
2022-12-09T05:33:00.672Z,91.48
2022-12-09T05:36:03.300Z,91.96
2022-12-09T05:39:07.372Z,92.01
2022-12-09T05:42:09.947Z,91.97
2022-12-09T05:45:13.090Z,91.81
2022-12-09T05:48:15.773Z,91.85
2022-12-09T05:51:23.108Z,91.82
2022-12-09T05:54:27.485Z,92.21
2022-12-09T05:57:31.121Z,92.35
2022-12-09T06:00:34.108Z,92.27
2022-12-09T06:03:37.154Z,92.17
2022-12-09T06:06:40.709Z,92.31
2022-12-09T06:09:45.329Z,92.39
2022-12-09T06:12:48.466Z,92.24
2022-12-09T06:15:51.308Z,92.16
2022-12-09T06:18:54.330Z,91.47
2022-12-09T06:21:57.261Z,91.82
2022-12-09T06:25:01.521Z,92.15
2022-12-09T06:28:04.740Z,91.98
2022-12-09T06:31:07.417Z,92.15
2022-12-09T06:34:10.625Z,92.22
2022-12-09T06:37:13.263Z,92.28
2022-12-09T06:40:17.321Z,92.17
2022-12-09T06:43:20.064Z,92.04
2022-12-09T06:46:24.606Z,92.12
2022-12-09T06:49:27.836Z,92.11
2022-12-09T06:52:30.607Z,91.90
2022-12-09T06:55:34.540Z,91.76
2022-12-09T06:58:37.917Z,91.77
2022-12-09T07:01:40.915Z,91.78
2022-12-09T07:04:43.825Z,91.82
2022-12-09T07:07:51.450Z,91.54
2022-12-09T07:10:57.111Z,91.47
2022-12-09T07:14:00.445Z,91.38
2022-12-09T07:17:03.769Z,91.22
2022-12-09T07:20:08.412Z,90.99
2022-12-09T07:23:11.490Z,91.25
2022-12-09T07:26:15.828Z,91.22
2022-12-09T07:29:18.773Z,91.18
2022-12-09T07:32:21.594Z,90.83
2022-12-09T07:35:25.041Z,91.37
2022-12-09T07:38:27.936Z,91.19
2022-12-09T07:41:31.891Z,91.40
2022-12-09T07:44:35.090Z,91.43
2022-12-09T07:47:38.338Z,91.25
2022-12-09T07:50:41.375Z,91.14
2022-12-09T07:53:44.555Z,91.39
2022-12-09T07:56:48.763Z,91.60
2022-12-09T07:59:53.465Z,90.96
2022-12-09T08:02:56.317Z,91.52
2022-12-09T08:05:59.450Z,91.73
2022-12-09T08:09:03.590Z,91.54
2022-12-09T08:12:08.525Z,91.83
2022-12-09T08:15:12.654Z,91.42
2022-12-09T08:18:15.814Z,91.41
2022-12-09T08:21:19.818Z,91.42
2022-12-09T08:24:22.813Z,91.48
2022-12-09T08:27:26.926Z,91.71
2022-12-09T08:30:30.455Z,91.68
2022-12-09T08:33:34.387Z,91.77
2022-12-09T08:36:37.895Z,91.96
2022-12-09T08:39:40.731Z,91.77
2022-12-09T08:42:44.684Z,91.87
2022-12-09T08:45:47.664Z,92.01
2022-12-09T08:48:50.462Z,91.86
2022-12-09T08:51:53.949Z,91.69
2022-12-09T08:54:57.424Z,91.33
2022-12-09T08:58:01.530Z,92.32
2022-12-09T09:01:04.251Z,92.22
2022-12-09T09:04:08.723Z,92.33
2022-12-09T09:07:12.323Z,92.86
2022-12-09T09:10:16.093Z,92.53
2022-12-09T09:13:20.721Z,92.77
2022-12-09T09:16:24.762Z,92.43
2022-12-09T09:19:27.733Z,91.71
2022-12-09T09:22:30.614Z,91.40
2022-12-09T09:25:33.374Z,90.65
2022-12-09T09:28:37.394Z,90.03
2022-12-09T09:31:40.186Z,90.05
2022-12-09T09:34:44.415Z,89.76
2022-12-09T09:37:48.416Z,89.61
2022-12-09T09:40:51.302Z,89.03
2022-12-09T09:43:55.585Z,88.68
2022-12-09T09:46:59.506Z,88.41
2022-12-09T09:50:03.596Z,88.63
2022-12-09T09:53:13.380Z,88.63
2022-12-09T09:56:20.678Z,88.03
2022-12-09T09:59:34.094Z,88.70
2022-12-09T10:02:47.527Z,88.06
2022-12-09T10:05:52.881Z,87.65
2022-12-09T10:08:59.333Z,88.27
2022-12-09T10:12:04.682Z,88.52
2022-12-09T10:15:11.521Z,88.73
2022-12-09T10:18:18.344Z,88.53
2022-12-09T10:21:21.697Z,89.02
2022-12-09T10:24:28.421Z,89.00
2022-12-09T10:27:36.042Z,89.34
2022-12-09T10:30:44.547Z,88.90
2022-12-09T10:33:48.036Z,88.28
2022-12-09T10:36:50.738Z,88.50
2022-12-09T10:39:55.537Z,88.44
2022-12-09T10:43:16.887Z,88.32
2022-12-09T10:46:24.304Z,89.30
2022-12-09T10:49:27.351Z,89.06
2022-12-09T10:52:31.782Z,89.34
2022-12-09T10:55:36.471Z,90.11
2022-12-09T10:58:39.296Z,90.46
2022-12-09T11:01:53.714Z,90.94
2022-12-09T11:04:57.331Z,90.44
2022-12-09T11:08:00.818Z,89.80
2022-12-09T11:11:03.845Z,89.34
2022-12-09T11:14:22.497Z,89.09
2022-12-09T11:17:28.399Z,88.41
2022-12-09T11:20:32.643Z,88.05
2022-12-09T11:23:36.747Z,87.93
2022-12-09T11:26:40.084Z,87.45
2022-12-09T11:29:43.003Z,87.04
2022-12-09T11:33:00.770Z,86.87
2022-12-09T11:39:11.600Z,87.19
2022-12-09T11:42:18.672Z,86.94
2022-12-09T11:45:23.824Z,86.39
2022-12-09T11:48:35.033Z,85.91
2022-12-09T11:51:41.883Z,85.53
2022-12-09T11:54:48.386Z,85.27
2022-12-09T11:57:52.326Z,84.86
2022-12-09T12:00:58.041Z,84.97
2022-12-09T12:04:03.649Z,84.47
2022-12-09T12:07:07.745Z,84.18
2022-12-09T12:10:16.068Z,84.29
2022-12-09T12:13:21.646Z,83.94
2022-12-09T12:16:27.347Z,83.89
2022-12-09T12:19:32.662Z,83.59
2022-12-09T12:22:54.492Z,83.19
2022-12-09T12:26:00.583Z,83.33
2022-12-09T12:29:14.159Z,83.59
2022-12-09T12:32:28.522Z,83.61
2022-12-09T12:35:49.338Z,83.57
2022-12-09T12:39:00.218Z,83.79
2022-12-09T12:42:05.810Z,83.59
2022-12-09T12:45:31.382Z,83.32
2022-12-09T12:48:40.136Z,83.36
2022-12-09T12:51:53.904Z,83.34
2022-12-09T12:55:13.136Z,83.29
2022-12-09T12:58:23.500Z,83.35
2022-12-09T13:01:30.607Z,83.53
2022-12-09T13:04:39.357Z,83.54
2022-12-09T13:07:46.448Z,83.53
2022-12-09T13:10:50.562Z,83.45
2022-12-09T13:13:54.797Z,83.48
2022-12-09T13:16:57.504Z,83.15
2022-12-09T13:20:01.675Z,83.00
2022-12-09T13:23:07.162Z,83.24
2022-12-09T13:26:19.518Z,83.01
2022-12-09T13:29:30.044Z,83.35
2022-12-09T13:32:59.548Z,83.71
2022-12-09T13:36:06.483Z,83.73
2022-12-09T13:39:12.699Z,83.49
2022-12-09T13:42:54.156Z,83.41
2022-12-09T13:45:57.948Z,83.21
2022-12-09T13:49:00.848Z,83.23
2022-12-09T13:52:03.408Z,83.13
2022-12-09T13:55:19.015Z,82.65
2022-12-09T13:58:48.870Z,82.64
2022-12-09T14:01:52.050Z,82.58
2022-12-09T14:05:07.435Z,82.55
2022-12-09T14:08:18.165Z,82.61
2022-12-09T14:11:47.031Z,82.08
2022-12-09T14:14:50.453Z,81.65
2022-12-09T14:18:29.143Z,81.82
2022-12-09T14:21:33.397Z,82.17
2022-12-09T14:24:36.969Z,82.27
2022-12-09T14:27:40.900Z,82.46
2022-12-09T14:30:51.069Z,82.38
2022-12-09T14:33:53.673Z,83.04
2022-12-09T14:37:00.959Z,82.89
2022-12-09T14:40:16.905Z,82.87
2022-12-09T14:43:48.623Z,83.04
2022-12-09T14:46:54.536Z,83.25
2022-12-09T14:50:05.389Z,83.03
2022-12-09T14:53:11.002Z,83.01
2022-12-09T14:56:17.178Z,83.72
2022-12-09T14:59:21.963Z,83.55
2022-12-09T15:02:25.635Z,83.82
2022-12-09T15:05:28.558Z,83.42
2022-12-09T15:08:32.776Z,83.49
2022-12-09T15:11:35.858Z,83.53
2022-12-09T15:14:39.851Z,83.46
2022-12-09T15:17:44.225Z,83.43
2022-12-09T15:20:49.728Z,83.83
2022-12-09T15:23:52.309Z,83.96
2022-12-09T15:26:58.850Z,83.45
2022-12-09T15:30:15.365Z,83.69
2022-12-09T15:33:19.557Z,83.83
2022-12-09T15:36:23.747Z,84.18
2022-12-09T15:39:28.502Z,84.02
2022-12-09T15:42:32.333Z,83.88
2022-12-09T15:45:37.896Z,83.70
2022-12-09T15:48:50.750Z,83.62
2022-12-09T15:51:54.172Z,83.39
2022-12-09T15:54:56.943Z,83.62
2022-12-09T15:58:00.375Z,83.78
2022-12-09T16:01:04.352Z,84.40
2022-12-09T16:04:07.136Z,84.75
2022-12-09T16:07:10.426Z,84.88
2022-12-09T16:10:15.034Z,84.11
2022-12-09T16:13:18.307Z,84.93
2022-12-09T16:16:27.280Z,85.04
2022-12-09T16:19:34.494Z,85.34
2022-12-09T16:22:37.113Z,85.21
2022-12-09T16:25:42.318Z,85.17
2022-12-09T16:28:44.886Z,85.27
2022-12-09T16:31:54.373Z,85.55
2022-12-09T16:35:00.474Z,85.24
2022-12-09T16:38:21.102Z,85.46
2022-12-09T16:41:23.658Z,85.55
2022-12-09T16:44:29.362Z,85.74
2022-12-09T16:47:33.313Z,85.39
2022-12-09T16:50:36.864Z,85.87
2022-12-09T16:53:45.031Z,85.84
2022-12-09T16:56:47.624Z,85.86
2022-12-09T17:02:58.565Z,85.50
2022-12-09T17:06:01.158Z,85.43
2022-12-09T17:09:03.774Z,85.44
2022-12-09T17:12:06.827Z,85.08
2022-12-09T17:15:10.881Z,84.82
2022-12-09T17:18:14.874Z,85.13
2022-12-09T17:21:17.512Z,85.24
2022-12-09T17:24:20.796Z,85.31
2022-12-09T17:27:23.376Z,85.35
2022-12-09T17:30:25.962Z,85.31
2022-12-09T17:33:30.374Z,84.90
2022-12-09T17:36:32.976Z,85.12
2022-12-09T17:39:35.582Z,85.29
2022-12-09T17:42:38.151Z,85.38
2022-12-09T17:45:42.412Z,85.25
2022-12-09T17:48:46.782Z,84.48
2022-12-09T17:51:49.393Z,85.10
2022-12-09T17:54:51.970Z,84.82
2022-12-09T17:57:54.584Z,84.54
2022-12-09T18:00:57.201Z,84.73
2022-12-09T18:04:07.639Z,84.31
2022-12-09T18:07:10.733Z,84.01
2022-12-09T18:10:13.396Z,83.84
2022-12-09T18:13:16.013Z,83.73
2022-12-09T18:16:18.753Z,84.06
2022-12-09T18:19:24.821Z,84.26
2022-12-09T18:22:27.402Z,84.12
2022-12-09T18:25:29.957Z,84.38
2022-12-09T18:28:32.564Z,84.28
2022-12-09T18:31:35.148Z,84.09
2022-12-09T18:34:39.106Z,84.18
2022-12-09T18:37:41.661Z,84.72
2022-12-09T18:41:00.900Z,84.39
2022-12-09T18:44:04.771Z,84.17
2022-12-09T18:47:07.373Z,84.08
2022-12-09T18:50:11.578Z,84.21
2022-12-09T18:53:14.165Z,83.92
2022-12-09T18:56:16.908Z,84.00
2022-12-09T18:59:19.735Z,83.91
2022-12-09T19:02:22.374Z,84.31
2022-12-09T19:05:26.669Z,84.55
2022-12-09T19:08:29.277Z,84.32
2022-12-09T19:11:33.012Z,84.54
2022-12-09T19:14:38.452Z,85.20
2022-12-09T19:17:42.560Z,85.29
2022-12-09T19:20:48.120Z,85.25
2022-12-09T19:23:50.998Z,85.64
2022-12-09T19:26:54.679Z,85.81
2022-12-09T19:29:57.269Z,86.34
2022-12-09T19:32:59.870Z,86.37
2022-12-09T19:36:05.467Z,86.23
2022-12-09T19:39:09.118Z,86.99
2022-12-09T19:42:11.720Z,86.70
2022-12-09T19:45:14.777Z,86.85
2022-12-09T19:48:17.449Z,87.20
2022-12-09T19:51:21.468Z,87.37
2022-12-09T19:54:28.623Z,87.50
2022-12-09T19:57:31.325Z,87.41
2022-12-09T20:00:39.762Z,87.85
2022-12-09T20:03:44.617Z,88.13
2022-12-09T20:06:48.719Z,88.51
2022-12-09T20:09:51.385Z,88.45
2022-12-09T20:12:53.939Z,88.52
2022-12-09T20:15:56.515Z,88.46
2022-12-09T20:18:59.761Z,89.24
2022-12-09T20:22:03.993Z,89.13
2022-12-09T20:25:07.466Z,88.99
2022-12-09T20:28:10.107Z,89.24
2022-12-09T20:31:13.624Z,89.32
2022-12-09T20:34:17.652Z,89.50
2022-12-09T20:37:21.602Z,89.79
2022-12-09T20:40:24.218Z,89.80
2022-12-09T20:43:26.857Z,89.66
2022-12-09T20:46:31.407Z,89.74
2022-12-09T20:49:33.985Z,89.36
2022-12-09T20:52:37.941Z,89.51
2022-12-09T20:55:40.545Z,89.61
2022-12-09T20:58:43.660Z,89.42
2022-12-09T21:01:47.064Z,89.36
2022-12-09T21:04:51.078Z,89.37
2022-12-09T21:07:55.070Z,89.41
2022-12-09T21:11:05.021Z,89.59
2022-12-09T21:14:07.971Z,89.40
2022-12-09T21:17:11.107Z,89.26
2022-12-09T21:20:14.135Z,89.35
2022-12-09T21:23:34.543Z,89.35
2022-12-09T21:26:37.542Z,88.84
2022-12-09T21:29:40.685Z,89.26
2022-12-09T21:32:43.281Z,89.15
2022-12-09T21:35:47.607Z,89.27
2022-12-09T21:38:51.588Z,89.26
2022-12-09T21:41:55.158Z,89.11
2022-12-09T21:44:57.756Z,89.39
2022-12-09T21:48:00.315Z,89.45
2022-12-09T21:51:03.129Z,89.01
2022-12-09T21:54:07.123Z,88.58
2022-12-09T21:57:09.738Z,88.19
2022-12-09T22:00:13.465Z,88.15
2022-12-09T22:03:16.061Z,88.45
2022-12-09T22:06:18.849Z,88.78
2022-12-09T22:09:24.445Z,88.62
2022-12-09T22:12:27.053Z,88.60
2022-12-09T22:15:29.695Z,88.70
2022-12-09T22:18:32.500Z,88.75
2022-12-09T22:21:36.265Z,88.86
2022-12-09T22:24:40.263Z,89.12
2022-12-09T22:27:42.829Z,88.91
2022-12-09T22:30:45.540Z,89.16
2022-12-09T22:33:48.306Z,89.23
2022-12-09T22:36:50.888Z,89.48
2022-12-09T22:39:54.842Z,89.52
2022-12-09T22:42:57.550Z,89.41
2022-12-09T22:46:03.726Z,89.77
2022-12-09T22:49:07.169Z,89.76
2022-12-09T22:52:09.740Z,89.75
2022-12-09T22:55:13.649Z,89.84
2022-12-09T22:58:16.198Z,90.19
2022-12-09T23:01:19.698Z,90.08
2022-12-09T23:04:22.649Z,90.22
2022-12-09T23:07:25.227Z,90.35
2022-12-09T23:10:29.144Z,90.28
2022-12-09T23:13:36.157Z,90.37
2022-12-09T23:16:41.744Z,90.49
2022-12-09T23:19:44.359Z,90.53
2022-12-09T23:22:46.969Z,90.79
2022-12-09T23:25:50.978Z,90.83
2022-12-09T23:28:54.426Z,90.75
2022-12-09T23:31:56.993Z,91.33
2022-12-09T23:35:01.984Z,91.40
2022-12-09T23:38:08.538Z,91.50
2022-12-09T23:41:12.691Z,91.76
2022-12-09T23:44:16.085Z,91.12
2022-12-09T23:47:18.693Z,91.54
2022-12-09T23:50:21.253Z,91.56
2022-12-09T23:53:23.956Z,91.75
2022-12-09T23:56:29.561Z,91.55
2022-12-09T23:59:32.153Z,91.74
